createdAt,value
2023-05-03T00:00:09.378Z,6.62
2023-05-03T00:03:13.570Z,6.62
2023-05-03T00:06:17.135Z,6.48
2023-05-03T00:09:19.825Z,6.56
2023-05-03T00:12:22.487Z,6.50
2023-05-03T00:15:25.383Z,6.35
2023-05-03T00:18:30.401Z,6.45
2023-05-03T00:21:32.984Z,6.22
2023-05-03T00:24:35.741Z,6.36
2023-05-03T00:27:38.469Z,6.24
2023-05-03T00:30:41.218Z,6.21
2023-05-03T00:33:45.182Z,6.22
2023-05-03T00:36:47.859Z,6.33
2023-05-03T00:39:50.532Z,6.26
2023-05-03T00:42:53.109Z,6.06
2023-05-03T00:46:04.621Z,6.10
2023-05-03T00:49:17.119Z,6.11
2023-05-03T00:52:19.709Z,5.94
2023-05-03T00:55:22.705Z,6.08
2023-05-03T00:58:25.860Z,6.11
2023-05-03T01:01:29.199Z,6.03
2023-05-03T01:04:33.496Z,5.93
2023-05-03T01:07:45.271Z,5.95
2023-05-03T01:10:55.928Z,5.97
2023-05-03T01:14:05.460Z,5.97
2023-05-03T01:17:12.651Z,5.90
2023-05-03T01:20:24.769Z,5.79
2023-05-03T01:23:37.342Z,5.79
2023-05-03T01:26:41.332Z,5.73
2023-05-03T01:29:44.739Z,5.75
2023-05-03T01:32:56.032Z,5.72
2023-05-03T01:36:03.339Z,5.70
2023-05-03T01:39:11.722Z,5.81
2023-05-03T01:42:16.770Z,5.92
2023-05-03T01:45:20.084Z,5.78
2023-05-03T01:48:25.665Z,5.65
2023-05-03T01:51:28.320Z,5.66
2023-05-03T01:54:31.104Z,5.61
2023-05-03T01:57:35.047Z,5.57
2023-05-03T02:00:37.599Z,5.49
2023-05-03T02:03:40.172Z,5.48
2023-05-03T02:06:42.775Z,5.44
2023-05-03T02:09:45.382Z,5.60
2023-05-03T02:12:49.401Z,5.51
2023-05-03T02:15:51.998Z,5.59
2023-05-03T02:18:59.194Z,5.51
2023-05-03T02:22:01.838Z,5.55
2023-05-03T02:25:04.973Z,5.60
2023-05-03T02:28:08.996Z,5.54
2023-05-03T02:31:13.446Z,5.38
2023-05-03T02:34:16.084Z,5.42
2023-05-03T02:37:18.719Z,5.60
2023-05-03T02:40:21.670Z,5.69
2023-05-03T02:43:25.652Z,5.72
2023-05-03T02:46:28.276Z,5.68
2023-05-03T02:49:31.190Z,5.55
2023-05-03T02:52:33.798Z,5.43
2023-05-03T02:55:36.641Z,5.42
2023-05-03T02:58:40.793Z,5.40
2023-05-03T03:01:43.728Z,5.59
2023-05-03T03:04:46.410Z,5.60
2023-05-03T03:07:49.119Z,5.69
2023-05-03T03:10:51.757Z,5.79
2023-05-03T03:13:59.398Z,5.84
2023-05-03T03:17:02.425Z,5.98
2023-05-03T03:20:06.108Z,6.02
2023-05-03T03:23:08.704Z,6.05
2023-05-03T03:26:11.294Z,6.12
2023-05-03T03:29:15.246Z,6.18
2023-05-03T03:32:17.833Z,6.21
2023-05-03T03:35:21.437Z,6.28
2023-05-03T03:38:24.008Z,6.23
2023-05-03T03:41:26.683Z,6.22
2023-05-03T03:44:30.779Z,6.40
2023-05-03T03:47:33.626Z,6.30
2023-05-03T03:50:36.236Z,6.37
2023-05-03T03:53:38.817Z,6.46
2023-05-03T03:56:41.432Z,6.47
2023-05-03T03:59:45.467Z,6.53
2023-05-03T04:02:48.874Z,6.56
2023-05-03T04:05:52.120Z,6.63
2023-05-03T04:08:54.692Z,6.62
2023-05-03T04:11:57.280Z,6.79
2023-05-03T04:15:01.260Z,6.75
2023-05-03T04:18:04.011Z,6.81
2023-05-03T04:21:06.741Z,6.89
2023-05-03T04:24:09.800Z,6.94
2023-05-03T04:27:14.712Z,6.90
2023-05-03T04:30:19.125Z,7.04
2023-05-03T04:33:21.993Z,7.03
2023-05-03T04:36:25.759Z,7.13
2023-05-03T04:39:28.480Z,7.24
2023-05-03T04:42:31.253Z,7.24
2023-05-03T04:45:35.232Z,7.36
2023-05-03T04:48:38.130Z,7.39
2023-05-03T04:51:40.802Z,7.45
2023-05-03T04:54:43.414Z,7.63
2023-05-03T04:57:45.996Z,7.64
2023-05-03T05:00:50.254Z,7.71
2023-05-03T05:03:53.374Z,7.76
2023-05-03T05:06:56.136Z,7.78
2023-05-03T05:09:58.776Z,7.76
2023-05-03T05:13:01.370Z,7.78
2023-05-03T05:16:05.900Z,7.93
2023-05-03T05:19:09.500Z,8.04
2023-05-03T05:22:12.129Z,8.16
2023-05-03T05:25:14.903Z,8.24
2023-05-03T05:28:17.763Z,8.24
2023-05-03T05:31:21.848Z,8.27
2023-05-03T05:34:24.473Z,8.36
2023-05-03T05:37:28.128Z,8.48
2023-05-03T05:40:30.789Z,8.44
2023-05-03T05:43:33.507Z,8.57
2023-05-03T05:46:37.476Z,8.53
2023-05-03T05:49:40.152Z,8.60
2023-05-03T05:52:42.747Z,8.68
2023-05-03T05:55:45.496Z,8.80
2023-05-03T05:58:48.095Z,8.90
2023-05-03T06:01:52.086Z,8.98
2023-05-03T06:04:54.736Z,9.06
2023-05-03T06:07:57.433Z,9.20
2023-05-03T06:11:00.147Z,9.36
2023-05-03T06:14:03.898Z,9.34
2023-05-03T06:17:07.861Z,9.55
2023-05-03T06:20:12.798Z,9.70
2023-05-03T06:23:15.421Z,9.69
2023-05-03T06:26:18.173Z,9.81
2023-05-03T06:29:20.788Z,9.63
2023-05-03T06:32:24.834Z,9.80
2023-05-03T06:35:28.257Z,9.97
2023-05-03T06:38:30.835Z,9.91
2023-05-03T06:41:33.965Z,10.15
2023-05-03T06:44:36.809Z,10.13
2023-05-03T06:47:42.824Z,10.11
2023-05-03T06:50:45.719Z,10.40
2023-05-03T06:53:48.291Z,10.51
2023-05-03T06:56:50.870Z,10.31
2023-05-03T06:59:53.443Z,10.22
2023-05-03T07:02:57.619Z,10.37
2023-05-03T07:06:00.753Z,10.07
2023-05-03T07:09:03.766Z,10.35
2023-05-03T07:12:06.608Z,10.50
2023-05-03T07:15:10.548Z,10.53
2023-05-03T07:18:14.556Z,10.72
2023-05-03T07:21:17.197Z,10.72
2023-05-03T07:24:19.796Z,10.44
2023-05-03T07:27:22.627Z,10.43
2023-05-03T07:30:25.523Z,10.76
2023-05-03T07:33:29.525Z,10.22
2023-05-03T07:36:32.182Z,10.52
2023-05-03T07:39:34.774Z,10.65
2023-05-03T07:42:37.498Z,10.47
2023-05-03T07:45:40.156Z,10.73
2023-05-03T07:48:44.096Z,10.86
2023-05-03T07:51:46.704Z,10.95
2023-05-03T07:54:49.314Z,11.21
2023-05-03T07:57:53.070Z,11.32
2023-05-03T08:00:55.926Z,11.33
2023-05-03T08:04:00.156Z,11.29
2023-05-03T08:07:04.080Z,11.40
2023-05-03T08:10:07.789Z,11.30
2023-05-03T08:13:10.492Z,11.26
2023-05-03T08:16:14.483Z,11.34
2023-05-03T08:19:18.490Z,11.38
2023-05-03T08:22:21.099Z,11.48
2023-05-03T08:25:24.929Z,11.65
2023-05-03T08:28:27.823Z,11.65
2023-05-03T08:31:31.124Z,11.69
2023-05-03T08:34:35.147Z,11.78
2023-05-03T08:37:40.968Z,11.73
2023-05-03T08:40:44.176Z,11.82
2023-05-03T08:43:47.187Z,11.82
2023-05-03T08:46:50.169Z,11.92
2023-05-03T08:49:54.678Z,12.05
2023-05-03T08:52:57.840Z,11.65
2023-05-03T08:56:00.446Z,11.68
2023-05-03T08:59:07.756Z,11.56
2023-05-03T09:02:11.788Z,11.37
2023-05-03T09:05:36.292Z,11.64
2023-05-03T09:08:44.355Z,11.74
2023-05-03T09:11:46.934Z,11.95
2023-05-03T09:14:50.374Z,12.15
2023-05-03T09:18:12.018Z,12.27
2023-05-03T09:21:20.314Z,11.97
2023-05-03T09:24:23.247Z,12.23
2023-05-03T09:27:26.882Z,12.40
2023-05-03T09:30:29.499Z,12.59
2023-05-03T09:33:32.118Z,12.48
2023-05-03T09:36:47.901Z,12.38
2023-05-03T09:40:07.702Z,12.45
2023-05-03T09:43:11.671Z,12.43
2023-05-03T09:46:15.191Z,12.50
2023-05-03T09:49:18.698Z,12.94
2023-05-03T09:52:23.284Z,13.41
2023-05-03T09:55:27.740Z,13.13
2023-05-03T09:58:30.878Z,13.11
2023-05-03T10:01:33.590Z,13.35
2023-05-03T10:04:40.986Z,13.13
2023-05-03T10:07:45.806Z,13.00
2023-05-03T10:10:54.200Z,13.11
2023-05-03T10:13:57.297Z,12.89
2023-05-03T10:17:03.523Z,13.15
2023-05-03T10:20:15.973Z,13.44
2023-05-03T10:23:19.953Z,13.37
2023-05-03T10:26:22.696Z,12.90
2023-05-03T10:29:51.851Z,13.20
2023-05-03T10:32:55.121Z,13.37
2023-05-03T10:35:59.109Z,13.19
2023-05-03T10:39:04.527Z,13.85
2023-05-03T10:42:09.815Z,15.20
2023-05-03T10:45:22.181Z,16.30
2023-05-03T10:48:24.839Z,17.18
2023-05-03T10:51:37.199Z,16.87
2023-05-03T10:54:41.416Z,17.17
2023-05-03T10:57:46.724Z,17.37
2023-05-03T11:00:52.196Z,17.19
2023-05-03T11:04:03.349Z,17.01
2023-05-03T11:07:06.068Z,16.97
2023-05-03T11:10:20.358Z,17.29
2023-05-03T11:13:23.074Z,16.53
2023-05-03T11:16:27.154Z,16.39
2023-05-03T11:19:30.410Z,16.03
2023-05-03T11:22:33.694Z,15.79
2023-05-03T11:25:38.574Z,15.61
2023-05-03T11:28:41.815Z,15.52
2023-05-03T11:31:44.495Z,15.59
2023-05-03T11:34:47.182Z,15.10
2023-05-03T11:37:49.735Z,14.32
2023-05-03T11:40:53.750Z,14.77
2023-05-03T11:44:07.902Z,15.16
2023-05-03T11:47:18.581Z,17.20
2023-05-03T11:50:28.998Z,17.66
2023-05-03T11:53:31.644Z,18.59
2023-05-03T11:56:35.709Z,17.78
2023-05-03T11:59:39.384Z,19.01
2023-05-03T12:02:42.400Z,19.84
2023-05-03T12:05:45.751Z,20.12
2023-05-03T12:08:48.856Z,19.44
2023-05-03T12:11:54.982Z,19.58
2023-05-03T12:14:59.896Z,19.84
2023-05-03T12:18:04.662Z,20.29
2023-05-03T12:21:30.729Z,19.92
2023-05-03T12:24:33.047Z,20.27
2023-05-03T12:27:39.197Z,20.45
2023-05-03T12:30:45.982Z,20.53
2023-05-03T12:34:07.221Z,19.89
2023-05-03T12:37:12.203Z,20.54
2023-05-03T12:40:32.373Z,20.55
2023-05-03T12:43:38.307Z,20.26
2023-05-03T12:46:44.814Z,19.94
2023-05-03T12:49:51.893Z,20.15
2023-05-03T12:52:54.853Z,20.84
2023-05-03T12:55:58.656Z,21.43
2023-05-03T12:59:35.155Z,20.76
2023-05-03T13:05:35.227Z,20.93
2023-05-03T13:08:41.084Z,20.59
2023-05-03T13:11:52.445Z,21.62
2023-05-03T13:14:56.796Z,20.93
2023-05-03T13:18:01.539Z,21.02
2023-05-03T13:21:04.952Z,21.80
2023-05-03T13:24:08.414Z,21.91
2023-05-03T13:27:12.608Z,21.46
2023-05-03T13:30:16.850Z,21.02
2023-05-03T13:33:19.562Z,20.79
2023-05-03T13:36:22.700Z,20.40
2023-05-03T13:39:25.396Z,21.34
2023-05-03T13:42:28.091Z,20.95
2023-05-03T13:45:32.062Z,20.50
2023-05-03T13:48:34.667Z,19.52
2023-05-03T13:51:38.448Z,19.03
2023-05-03T13:54:42.238Z,19.28
2023-05-03T13:57:44.977Z,19.64
2023-05-03T14:00:48.878Z,19.76
2023-05-03T14:03:51.619Z,19.72
2023-05-03T14:06:54.313Z,19.44
2023-05-03T14:09:57.466Z,18.88
2023-05-03T14:13:00.318Z,18.09
2023-05-03T14:16:04.717Z,17.71
2023-05-03T14:19:07.374Z,17.48
2023-05-03T14:22:10.150Z,17.92
2023-05-03T14:25:13.249Z,18.00
2023-05-03T14:28:15.822Z,17.39
2023-05-03T14:31:19.953Z,17.66
2023-05-03T14:34:22.578Z,17.48
2023-05-03T14:37:25.151Z,17.10
2023-05-03T14:40:27.724Z,17.05
2023-05-03T14:43:30.397Z,17.01
2023-05-03T14:46:34.403Z,16.89
2023-05-03T14:49:40.589Z,16.93
2023-05-03T14:52:43.193Z,16.88
2023-05-03T14:55:47.302Z,16.77
2023-05-03T14:58:50.299Z,16.78
2023-05-03T15:01:54.512Z,16.91
2023-05-03T15:04:57.412Z,16.87
2023-05-03T15:08:00.296Z,16.70
2023-05-03T15:11:03.046Z,16.73
2023-05-03T15:14:05.899Z,16.65
2023-05-03T15:17:10.035Z,16.72
2023-05-03T15:20:15.261Z,16.81
2023-05-03T15:23:17.960Z,16.99
2023-05-03T15:26:22.231Z,16.89
2023-05-03T15:29:24.798Z,16.62
2023-05-03T15:32:28.717Z,16.33
2023-05-03T15:35:31.398Z,16.10
2023-05-03T15:38:33.991Z,15.93
2023-05-03T15:41:36.580Z,15.72
2023-05-03T15:44:39.153Z,15.67
2023-05-03T15:47:43.157Z,15.62
2023-05-03T15:50:45.950Z,15.46
2023-05-03T15:53:48.505Z,15.72
2023-05-03T15:56:53.163Z,15.90
2023-05-03T15:59:55.861Z,15.79
2023-05-03T16:02:59.911Z,15.90
2023-05-03T16:06:02.856Z,15.62
2023-05-03T16:09:06.884Z,15.61
2023-05-03T16:12:09.461Z,15.32
2023-05-03T16:15:13.040Z,15.63
2023-05-03T16:18:17.042Z,15.39
2023-05-03T16:21:19.749Z,14.86
2023-05-03T16:24:22.454Z,14.83
2023-05-03T16:27:25.049Z,15.10
2023-05-03T16:30:27.773Z,15.24
2023-05-03T16:33:31.701Z,15.49
2023-05-03T16:36:34.439Z,15.04
2023-05-03T16:39:37.523Z,15.08
2023-05-03T16:42:40.814Z,15.04
2023-05-03T16:45:43.447Z,14.78
2023-05-03T16:48:48.097Z,14.64
2023-05-03T16:51:50.752Z,14.78
2023-05-03T16:54:53.350Z,14.34
2023-05-03T16:57:55.923Z,14.49
2023-05-03T17:00:58.537Z,14.73
2023-05-03T17:04:04.481Z,14.87
2023-05-03T17:07:07.112Z,14.55
2023-05-03T17:10:10.574Z,14.39
2023-05-03T17:13:13.494Z,14.54
2023-05-03T17:16:16.226Z,14.67
2023-05-03T17:19:20.775Z,14.45
2023-05-03T17:22:23.362Z,14.32
2023-05-03T17:25:25.917Z,14.14
2023-05-03T17:28:28.531Z,14.49
2023-05-03T17:31:31.138Z,14.46
2023-05-03T17:34:35.534Z,14.60
2023-05-03T17:37:38.501Z,13.95
2023-05-03T17:40:43.096Z,14.28
2023-05-03T17:43:45.684Z,14.34
2023-05-03T17:46:48.551Z,14.30
2023-05-03T17:49:52.536Z,14.09
2023-05-03T17:52:55.813Z,13.99
2023-05-03T17:55:58.750Z,13.92
2023-05-03T17:59:01.844Z,13.91
2023-05-03T18:02:05.177Z,13.85
2023-05-03T18:05:10.065Z,13.83
2023-05-03T18:08:13.153Z,13.79
2023-05-03T18:11:15.985Z,13.79
2023-05-03T18:14:18.601Z,13.65
2023-05-03T18:17:21.353Z,13.54
2023-05-03T18:20:25.319Z,13.56
2023-05-03T18:23:27.959Z,13.40
2023-05-03T18:26:30.561Z,13.47
2023-05-03T18:29:33.125Z,13.36
2023-05-03T18:32:36.021Z,13.23
2023-05-03T18:35:40.075Z,13.24
2023-05-03T18:38:42.883Z,13.08
2023-05-03T18:41:45.491Z,13.08
2023-05-03T18:44:48.057Z,12.93
2023-05-03T18:47:51.044Z,12.86
2023-05-03T18:50:55.212Z,12.69
2023-05-03T18:53:59.619Z,12.64
2023-05-03T18:57:02.706Z,12.45
2023-05-03T19:00:06.415Z,12.38
2023-05-03T19:03:09.024Z,12.25
2023-05-03T19:06:12.988Z,12.18
2023-05-03T19:09:16.263Z,12.04
2023-05-03T19:12:18.878Z,12.01
2023-05-03T19:15:21.633Z,11.84
2023-05-03T19:18:24.318Z,11.76
2023-05-03T19:21:28.470Z,11.67
2023-05-03T19:24:31.335Z,11.63
2023-05-03T19:27:34.173Z,11.70
2023-05-03T19:30:36.808Z,11.69
2023-05-03T19:33:39.456Z,11.68
2023-05-03T19:36:43.408Z,11.79
2023-05-03T19:39:46.175Z,11.63
2023-05-03T19:42:50.438Z,11.60
2023-05-03T19:45:53.642Z,11.57
2023-05-03T19:48:56.299Z,11.48
2023-05-03T19:52:01.903Z,11.30
2023-05-03T19:55:07.099Z,11.13
2023-05-03T19:58:09.801Z,11.00
2023-05-03T20:01:12.386Z,10.93
2023-05-03T20:04:15.077Z,10.89
2023-05-03T20:07:19.039Z,10.80
2023-05-03T20:10:21.622Z,10.73
2023-05-03T20:13:26.165Z,10.59
2023-05-03T20:19:35.370Z,10.51
2023-05-03T20:22:39.430Z,10.37
2023-05-03T20:25:42.032Z,10.32
2023-05-03T20:28:44.613Z,10.24
2023-05-03T20:31:48.508Z,10.20
2023-05-03T20:34:51.430Z,10.26
2023-05-03T20:37:55.407Z,10.17
2023-05-03T20:40:58.087Z,10.15
2023-05-03T20:44:00.659Z,10.10
2023-05-03T20:47:03.227Z,10.00
2023-05-03T20:50:07.147Z,9.84
2023-05-03T20:53:11.323Z,9.83
2023-05-03T20:56:13.904Z,9.81
2023-05-03T20:59:16.960Z,9.81
2023-05-03T21:02:19.605Z,9.69
2023-05-03T21:05:22.466Z,9.58
2023-05-03T21:08:26.782Z,9.69
2023-05-03T21:11:29.384Z,9.50
2023-05-03T21:14:31.994Z,9.43
2023-05-03T21:17:34.800Z,9.46
2023-05-03T21:20:38.242Z,9.39
2023-05-03T21:23:42.239Z,9.45
2023-05-03T21:26:44.828Z,9.35
2023-05-03T21:29:47.386Z,9.31
2023-05-03T21:32:50.501Z,9.30
2023-05-03T21:35:53.135Z,9.24
2023-05-03T21:38:57.865Z,9.25
2023-05-03T21:42:00.444Z,9.15
2023-05-03T21:45:03.149Z,9.10
2023-05-03T21:48:06.396Z,9.00
2023-05-03T21:51:09.050Z,9.04
2023-05-03T21:54:13.008Z,8.94
2023-05-03T21:57:16.010Z,8.88
2023-05-03T22:00:20.678Z,8.86
2023-05-03T22:03:23.524Z,8.78
2023-05-03T22:06:26.727Z,8.82
2023-05-03T22:09:30.779Z,8.89
2023-05-03T22:12:33.899Z,8.76
2023-05-03T22:15:36.539Z,8.88
2023-05-03T22:18:39.276Z,8.78
2023-05-03T22:21:42.364Z,8.79
2023-05-03T22:24:46.380Z,8.80
2023-05-03T22:27:48.968Z,8.77
2023-05-03T22:30:51.965Z,8.79
2023-05-03T22:33:54.631Z,8.61
2023-05-03T22:36:57.201Z,8.59
2023-05-03T22:40:01.552Z,8.56
2023-05-03T22:43:04.302Z,8.51
2023-05-03T22:46:07.182Z,8.41
2023-05-03T22:49:09.838Z,8.41
2023-05-03T22:52:12.435Z,8.35
2023-05-03T22:55:16.569Z,8.40
2023-05-03T22:58:19.217Z,8.21
2023-05-03T23:01:22.010Z,8.20
2023-05-03T23:04:24.607Z,8.08
2023-05-03T23:07:28.141Z,8.13
2023-05-03T23:10:32.087Z,8.12
2023-05-03T23:13:34.646Z,8.01
2023-05-03T23:16:37.306Z,7.90
2023-05-03T23:19:39.916Z,8.01
2023-05-03T23:22:42.520Z,7.85
2023-05-03T23:25:46.535Z,7.87
2023-05-03T23:28:49.622Z,7.89
2023-05-03T23:31:52.772Z,7.82
2023-05-03T23:34:55.890Z,7.80
2023-05-03T23:37:58.462Z,7.80
2023-05-03T23:41:02.434Z,7.73
2023-05-03T23:44:05.307Z,7.67
2023-05-03T23:47:08.010Z,7.77
2023-05-03T23:50:11.256Z,7.63
2023-05-03T23:53:13.861Z,7.72
2023-05-03T23:56:17.844Z,7.67
2023-05-03T23:59:20.432Z,7.78
